sensor_id;sensor_type;location;lat;lon;timestamp;temperature;humidity
59651;DHT22;45954;49.768;8.636;2022-08-19T00:01:44;22.70;95.60
59651;DHT22;45954;49.768;8.636;2022-08-19T00:04:13;22.70;95.20
59651;DHT22;45954;49.768;8.636;2022-08-19T00:06:42;22.70;95.20
59651;DHT22;45954;49.768;8.636;2022-08-19T00:09:12;22.60;95.30
59651;DHT22;45954;49.768;8.636;2022-08-19T00:11:40;22.40;95.60
59651;DHT22;45954;49.768;8.636;2022-08-19T00:14:09;22.40;95.70
59651;DHT22;45954;49.768;8.636;2022-08-19T00:16:40;22.40;95.60
59651;DHT22;45954;49.768;8.636;2022-08-19T00:19:08;22.40;95.90
59651;DHT22;45954;49.768;8.636;2022-08-19T00:21:34;22.50;95.80
59651;DHT22;45954;49.768;8.636;2022-08-19T00:24:10;22.50;95.80
59651;DHT22;45954;49.768;8.636;2022-08-19T00:26:38;22.60;95.60
59651;DHT22;45954;49.768;8.636;2022-08-19T00:29:08;22.70;95.70
59651;DHT22;45954;49.768;8.636;2022-08-19T00:31:36;22.70;95.60
59651;DHT22;45954;49.768;8.636;2022-08-19T00:34:02;22.50;95.80
59651;DHT22;45954;49.768;8.636;2022-08-19T00:36:29;22.50;95.80
59651;DHT22;45954;49.768;8.636;2022-08-19T00:38:57;22.50;95.70
59651;DHT22;45954;49.768;8.636;2022-08-19T00:41:24;22.50;95.90
59651;DHT22;45954;49.768;8.636;2022-08-19T00:46:32;22.30;96.10
59651;DHT22;45954;49.768;8.636;2022-08-19T00:49:00;22.30;95.90
59651;DHT22;45954;49.768;8.636;2022-08-19T00:51:30;22.40;96.00
59651;DHT22;45954;49.768;8.636;2022-08-19T00:54:00;22.40;96.00
59651;DHT22;45954;49.768;8.636;2022-08-19T00:56:29;22.40;96.10
59651;DHT22;45954;49.768;8.636;2022-08-19T00:58:58;22.30;96.20
59651;DHT22;45954;49.768;8.636;2022-08-19T01:01:24;22.30;96.10
59651;DHT22;45954;49.768;8.636;2022-08-19T01:03:50;22.40;96.20
59651;DHT22;45954;49.768;8.636;2022-08-19T01:06:17;22.50;96.10
59651;DHT22;45954;49.768;8.636;2022-08-19T01:08:43;22.50;95.60
59651;DHT22;45954;49.768;8.636;2022-08-19T01:11:09;22.50;95.60
59651;DHT22;45954;49.768;8.636;2022-08-19T01:13:35;22.50;95.60
59651;DHT22;45954;49.768;8.636;2022-08-19T01:16:06;22.60;95.70
59651;DHT22;45954;49.768;8.636;2022-08-19T01:18:39;22.60;95.60
59651;DHT22;45954;49.768;8.636;2022-08-19T01:21:12;22.50;95.50
59651;DHT22;45954;49.768;8.636;2022-08-19T01:23:45;22.40;95.90
59651;DHT22;45954;49.768;8.636;2022-08-19T01:26:17;22.20;96.00
59651;DHT22;45954;49.768;8.636;2022-08-19T01:28:49;21.80;96.70
59651;DHT22;45954;49.768;8.636;2022-08-19T01:31:21;21.70;97.10
59651;DHT22;45954;49.768;8.636;2022-08-19T01:33:50;21.80;97.00
59651;DHT22;45954;49.768;8.636;2022-08-19T01:36:42;22.10;96.70
59651;DHT22;45954;49.768;8.636;2022-08-19T01:39:16;22.20;96.50
59651;DHT22;45954;49.768;8.636;2022-08-19T01:41:43;22.30;96.60
59651;DHT22;45954;49.768;8.636;2022-08-19T01:44:10;22.30;96.40
59651;DHT22;45954;49.768;8.636;2022-08-19T01:46:37;22.30;96.70
59651;DHT22;45954;49.768;8.636;2022-08-19T01:49:05;22.20;96.90
59651;DHT22;45954;49.768;8.636;2022-08-19T01:51:32;22.30;96.90
59651;DHT22;45954;49.768;8.636;2022-08-19T01:53:58;22.30;96.90
59651;DHT22;45954;49.768;8.636;2022-08-19T01:56:24;22.30;97.00
59651;DHT22;45954;49.768;8.636;2022-08-19T01:58:58;22.30;96.90
59651;DHT22;45954;49.768;8.636;2022-08-19T02:01:29;22.40;96.60
59651;DHT22;45954;49.768;8.636;2022-08-19T02:03:58;22.20;96.70
59651;DHT22;45954;49.768;8.636;2022-08-19T02:06:25;22.10;97.10
59651;DHT22;45954;49.768;8.636;2022-08-19T02:08:52;21.80;97.70
59651;DHT22;45954;49.768;8.636;2022-08-19T02:11:24;21.90;97.50
59651;DHT22;45954;49.768;8.636;2022-08-19T02:13:54;22.20;97.30
59651;DHT22;45954;49.768;8.636;2022-08-19T02:16:21;22.20;97.00
59651;DHT22;45954;49.768;8.636;2022-08-19T02:18:47;21.90;97.50
59651;DHT22;45954;49.768;8.636;2022-08-19T02:21:18;21.70;97.80
59651;DHT22;45954;49.768;8.636;2022-08-19T02:23:46;21.60;97.90
59651;DHT22;45954;49.768;8.636;2022-08-19T02:26:12;21.90;97.40
59651;DHT22;45954;49.768;8.636;2022-08-19T02:28:39;22.00;97.50
59651;DHT22;45954;49.768;8.636;2022-08-19T02:31:11;22.10;97.30
59651;DHT22;45954;49.768;8.636;2022-08-19T02:33:40;22.10;97.30
59651;DHT22;45954;49.768;8.636;2022-08-19T02:36:08;22.10;97.30
59651;DHT22;45954;49.768;8.636;2022-08-19T02:38:35;22.20;97.20
59651;DHT22;45954;49.768;8.636;2022-08-19T02:41:11;22.10;97.40
59651;DHT22;45954;49.768;8.636;2022-08-19T02:43:39;22.00;97.60
59651;DHT22;45954;49.768;8.636;2022-08-19T02:46:21;21.90;97.80
59651;DHT22;45954;49.768;8.636;2022-08-19T02:48:51;22.00;97.50
59651;DHT22;45954;49.768;8.636;2022-08-19T02:51:21;22.10;97.40
59651;DHT22;45954;49.768;8.636;2022-08-19T02:53:50;22.00;97.50
59651;DHT22;45954;49.768;8.636;2022-08-19T02:56:16;22.00;97.60
59651;DHT22;45954;49.768;8.636;2022-08-19T02:58:42;21.80;97.70
59651;DHT22;45954;49.768;8.636;2022-08-19T03:01:09;21.70;97.90
59651;DHT22;45954;49.768;8.636;2022-08-19T03:03:37;21.80;97.70
59651;DHT22;45954;49.768;8.636;2022-08-19T03:06:14;21.70;97.70
59651;DHT22;45954;49.768;8.636;2022-08-19T03:08:43;21.50;98.10
59651;DHT22;45954;49.768;8.636;2022-08-19T03:11:25;21.40;98.10
59651;DHT22;45954;49.768;8.636;2022-08-19T03:13:53;21.30;98.30
59651;DHT22;45954;49.768;8.636;2022-08-19T03:16:22;21.40;98.20
59651;DHT22;45954;49.768;8.636;2022-08-19T03:18:50;21.50;98.00
59651;DHT22;45954;49.768;8.636;2022-08-19T03:21:19;21.50;97.90
59651;DHT22;45954;49.768;8.636;2022-08-19T03:23:47;21.50;98.00
59651;DHT22;45954;49.768;8.636;2022-08-19T03:26:13;21.60;98.00
59651;DHT22;45954;49.768;8.636;2022-08-19T03:28:44;21.70;98.00
59651;DHT22;45954;49.768;8.636;2022-08-19T03:31:17;21.60;98.00
59651;DHT22;45954;49.768;8.636;2022-08-19T03:33:45;21.60;97.80
59651;DHT22;45954;49.768;8.636;2022-08-19T03:36:17;21.50;98.00
59651;DHT22;45954;49.768;8.636;2022-08-19T03:38:50;21.40;98.20
59651;DHT22;45954;49.768;8.636;2022-08-19T03:41:21;21.60;98.00
59651;DHT22;45954;49.768;8.636;2022-08-19T03:43:48;21.70;97.70
59651;DHT22;45954;49.768;8.636;2022-08-19T03:46:27;21.80;97.80
59651;DHT22;45954;49.768;8.636;2022-08-19T03:48:57;21.80;97.60
59651;DHT22;45954;49.768;8.636;2022-08-19T03:51:28;21.80;97.30
59651;DHT22;45954;49.768;8.636;2022-08-19T03:53:58;21.50;97.80
59651;DHT22;45954;49.768;8.636;2022-08-19T03:56:26;21.10;98.40
59651;DHT22;45954;49.768;8.636;2022-08-19T03:58:54;21.20;98.50
59651;DHT22;45954;49.768;8.636;2022-08-19T04:01:24;21.30;98.10
59651;DHT22;45954;49.768;8.636;2022-08-19T04:03:58;21.20;98.40
59651;DHT22;45954;49.768;8.636;2022-08-19T04:06:28;21.10;98.60
59651;DHT22;45954;49.768;8.636;2022-08-19T04:08:58;21.30;98.40
59651;DHT22;45954;49.768;8.636;2022-08-19T04:11:28;21.50;98.20
59651;DHT22;45954;49.768;8.636;2022-08-19T04:13:59;21.70;97.80
59651;DHT22;45954;49.768;8.636;2022-08-19T04:16:27;21.70;97.70
59651;DHT22;45954;49.768;8.636;2022-08-19T04:18:55;21.60;97.80
59651;DHT22;45954;49.768;8.636;2022-08-19T04:21:26;21.40;98.20
59651;DHT22;45954;49.768;8.636;2022-08-19T04:23:54;21.50;98.20
59651;DHT22;45954;49.768;8.636;2022-08-19T04:26:25;21.60;98.00
59651;DHT22;45954;49.768;8.636;2022-08-19T04:28:53;21.60;97.90
59651;DHT22;45954;49.768;8.636;2022-08-19T04:31:26;21.70;97.80
59651;DHT22;45954;49.768;8.636;2022-08-19T04:33:54;21.70;97.70
59651;DHT22;45954;49.768;8.636;2022-08-19T04:36:29;21.70;97.70
59651;DHT22;45954;49.768;8.636;2022-08-19T04:38:59;21.70;97.70
59651;DHT22;45954;49.768;8.636;2022-08-19T04:41:27;21.80;97.60
59651;DHT22;45954;49.768;8.636;2022-08-19T04:44:13;21.80;97.60
59651;DHT22;45954;49.768;8.636;2022-08-19T04:46:39;21.50;97.80
59651;DHT22;45954;49.768;8.636;2022-08-19T04:49:06;21.70;97.70
59651;DHT22;45954;49.768;8.636;2022-08-19T04:51:41;21.70;97.60
59651;DHT22;45954;49.768;8.636;2022-08-19T04:54:13;21.60;97.70
59651;DHT22;45954;49.768;8.636;2022-08-19T04:56:42;21.70;97.60
59651;DHT22;45954;49.768;8.636;2022-08-19T04:59:10;21.80;97.80
59651;DHT22;45954;49.768;8.636;2022-08-19T05:01:39;21.90;97.50
59651;DHT22;45954;49.768;8.636;2022-08-19T05:04:06;21.60;97.90
59651;DHT22;45954;49.768;8.636;2022-08-19T05:06:33;21.70;97.90
59651;DHT22;45954;49.768;8.636;2022-08-19T05:09:01;21.70;97.60
59651;DHT22;45954;49.768;8.636;2022-08-19T05:11:33;21.50;97.90
59651;DHT22;45954;49.768;8.636;2022-08-19T05:14:01;21.30;98.10
59651;DHT22;45954;49.768;8.636;2022-08-19T05:16:27;21.40;98.10
59651;DHT22;45954;49.768;8.636;2022-08-19T05:18:54;21.60;97.90
59651;DHT22;45954;49.768;8.636;2022-08-19T05:21:40;21.60;97.90
59651;DHT22;45954;49.768;8.636;2022-08-19T05:24:27;21.70;97.70
59651;DHT22;45954;49.768;8.636;2022-08-19T05:26:55;21.60;98.00
59651;DHT22;45954;49.768;8.636;2022-08-19T05:29:26;21.80;98.10
59651;DHT22;45954;49.768;8.636;2022-08-19T05:31:54;21.90;97.80
59651;DHT22;45954;49.768;8.636;2022-08-19T05:34:23;22.00;97.70
59651;DHT22;45954;49.768;8.636;2022-08-19T05:36:56;22.00;97.30
59651;DHT22;45954;49.768;8.636;2022-08-19T05:39:27;21.70;97.70
59651;DHT22;45954;49.768;8.636;2022-08-19T05:41:57;21.70;97.70
59651;DHT22;45954;49.768;8.636;2022-08-19T05:44:27;21.70;97.60
59651;DHT22;45954;49.768;8.636;2022-08-19T05:46:58;21.70;97.70
59651;DHT22;45954;49.768;8.636;2022-08-19T05:49:27;21.60;97.90
59651;DHT22;45954;49.768;8.636;2022-08-19T05:51:54;21.80;98.00
59651;DHT22;45954;49.768;8.636;2022-08-19T05:54:22;22.00;97.80
59651;DHT22;45954;49.768;8.636;2022-08-19T05:56:50;22.10;97.60
59651;DHT22;45954;49.768;8.636;2022-08-19T05:59:18;22.10;97.50
59651;DHT22;45954;49.768;8.636;2022-08-19T06:01:48;22.20;97.50
59651;DHT22;45954;49.768;8.636;2022-08-19T06:04:20;22.10;97.50
59651;DHT22;45954;49.768;8.636;2022-08-19T06:06:49;22.20;97.40
59651;DHT22;45954;49.768;8.636;2022-08-19T06:09:18;22.30;97.40
59651;DHT22;45954;49.768;8.636;2022-08-19T06:11:51;22.40;97.20
59651;DHT22;45954;49.768;8.636;2022-08-19T06:14:29;22.60;97.10
59651;DHT22;45954;49.768;8.636;2022-08-19T06:16:57;22.50;96.20
59651;DHT22;45954;49.768;8.636;2022-08-19T06:19:25;22.50;96.30
59651;DHT22;45954;49.768;8.636;2022-08-19T06:21:52;22.50;96.10
59651;DHT22;45954;49.768;8.636;2022-08-19T06:24:22;22.50;95.90
59651;DHT22;45954;49.768;8.636;2022-08-19T06:26:51;22.40;96.10
59651;DHT22;45954;49.768;8.636;2022-08-19T06:29:21;22.40;95.90
59651;DHT22;45954;49.768;8.636;2022-08-19T06:31:51;22.50;95.90
59651;DHT22;45954;49.768;8.636;2022-08-19T06:34:19;22.50;95.70
59651;DHT22;45954;49.768;8.636;2022-08-19T06:36:48;22.30;95.60
59651;DHT22;45954;49.768;8.636;2022-08-19T06:39:28;22.20;96.00
59651;DHT22;45954;49.768;8.636;2022-08-19T06:41:59;22.40;95.70
59651;DHT22;45954;49.768;8.636;2022-08-19T06:44:28;22.50;95.90
59651;DHT22;45954;49.768;8.636;2022-08-19T06:46:55;22.60;95.90
59651;DHT22;45954;49.768;8.636;2022-08-19T06:49:22;22.70;95.60
59651;DHT22;45954;49.768;8.636;2022-08-19T06:51:49;22.70;95.40
59651;DHT22;45954;49.768;8.636;2022-08-19T06:54:17;22.80;95.20
59651;DHT22;45954;49.768;8.636;2022-08-19T06:56:43;23.10;95.30
59651;DHT22;45954;49.768;8.636;2022-08-19T06:59:14;23.20;94.90
59651;DHT22;45954;49.768;8.636;2022-08-19T07:01:44;23.20;94.80
59651;DHT22;45954;49.768;8.636;2022-08-19T07:04:18;23.30;95.10
59651;DHT22;45954;49.768;8.636;2022-08-19T07:06:46;23.40;94.70
59651;DHT22;45954;49.768;8.636;2022-08-19T07:09:16;23.60;94.50
59651;DHT22;45954;49.768;8.636;2022-08-19T07:11:48;23.60;94.50
59651;DHT22;45954;49.768;8.636;2022-08-19T07:14:18;23.60;94.90
59651;DHT22;45954;49.768;8.636;2022-08-19T07:16:49;23.50;94.30
59651;DHT22;45954;49.768;8.636;2022-08-19T07:19:18;23.30;94.20
59651;DHT22;45954;49.768;8.636;2022-08-19T07:21:48;23.20;94.70
59651;DHT22;45954;49.768;8.636;2022-08-19T07:24:23;23.30;95.10
59651;DHT22;45954;49.768;8.636;2022-08-19T07:26:53;23.50;94.60
59651;DHT22;45954;49.768;8.636;2022-08-19T07:29:22;23.50;94.60
59651;DHT22;45954;49.768;8.636;2022-08-19T07:31:50;23.30;94.80
59651;DHT22;45954;49.768;8.636;2022-08-19T07:34:17;23.20;94.40
59651;DHT22;45954;49.768;8.636;2022-08-19T07:36:44;23.20;94.20
59651;DHT22;45954;49.768;8.636;2022-08-19T07:39:17;23.20;94.40
59651;DHT22;45954;49.768;8.636;2022-08-19T07:41:46;23.50;94.30
59651;DHT22;45954;49.768;8.636;2022-08-19T07:44:16;23.90;94.00
59651;DHT22;45954;49.768;8.636;2022-08-19T07:46:45;24.20;94.00
59651;DHT22;45954;49.768;8.636;2022-08-19T07:49:14;24.30;93.40
59651;DHT22;45954;49.768;8.636;2022-08-19T07:52:13;24.20;93.00
59651;DHT22;45954;49.768;8.636;2022-08-19T07:54:40;24.20;93.20
59651;DHT22;45954;49.768;8.636;2022-08-19T07:57:06;24.30;93.10
59651;DHT22;45954;49.768;8.636;2022-08-19T07:59:33;24.50;92.80
59651;DHT22;45954;49.768;8.636;2022-08-19T08:02:00;24.70;92.70
59651;DHT22;45954;49.768;8.636;2022-08-19T08:04:27;24.80;92.20
59651;DHT22;45954;49.768;8.636;2022-08-19T08:07:13;24.90;92.30
59651;DHT22;45954;49.768;8.636;2022-08-19T08:09:58;24.70;92.50
59651;DHT22;45954;49.768;8.636;2022-08-19T08:12:38;24.60;92.30
59651;DHT22;45954;49.768;8.636;2022-08-19T08:15:12;24.50;92.10
59651;DHT22;45954;49.768;8.636;2022-08-19T08:17:44;24.50;92.40
59651;DHT22;45954;49.768;8.636;2022-08-19T08:20:12;24.50;92.20
59651;DHT22;45954;49.768;8.636;2022-08-19T08:22:43;24.50;92.30
59651;DHT22;45954;49.768;8.636;2022-08-19T08:25:28;24.40;92.30
59651;DHT22;45954;49.768;8.636;2022-08-19T08:27:55;24.50;92.40
59651;DHT22;45954;49.768;8.636;2022-08-19T08:30:24;24.40;92.30
59651;DHT22;45954;49.768;8.636;2022-08-19T08:32:51;24.50;92.40
59651;DHT22;45954;49.768;8.636;2022-08-19T08:35:22;24.70;92.30
59651;DHT22;45954;49.768;8.636;2022-08-19T08:37:51;24.80;92.00
59651;DHT22;45954;49.768;8.636;2022-08-19T08:45:43;25.00;91.70
59651;DHT22;45954;49.768;8.636;2022-08-19T08:51:37;25.00;91.40
59651;DHT22;45954;49.768;8.636;2022-08-19T08:54:09;25.20;91.50
59651;DHT22;45954;49.768;8.636;2022-08-19T08:56:41;25.30;91.00
59651;DHT22;45954;49.768;8.636;2022-08-19T08:59:24;25.60;90.90
59651;DHT22;45954;49.768;8.636;2022-08-19T09:01:57;25.60;90.30
59651;DHT22;45954;49.768;8.636;2022-08-19T09:04:24;25.50;90.70
59651;DHT22;45954;49.768;8.636;2022-08-19T09:07:45;25.50;90.40
59651;DHT22;45954;49.768;8.636;2022-08-19T09:16:05;26.30;89.80
59651;DHT22;45954;49.768;8.636;2022-08-19T09:21:08;26.00;87.40
59651;DHT22;45954;49.768;8.636;2022-08-19T09:23:36;26.10;88.00
59651;DHT22;45954;49.768;8.636;2022-08-19T09:26:08;26.30;88.10
59651;DHT22;45954;49.768;8.636;2022-08-19T09:28:35;26.20;86.90
59651;DHT22;45954;49.768;8.636;2022-08-19T09:31:02;26.20;87.20
59651;DHT22;45954;49.768;8.636;2022-08-19T09:33:28;26.20;87.90
59651;DHT22;45954;49.768;8.636;2022-08-19T09:36:05;26.00;87.60
59651;DHT22;45954;49.768;8.636;2022-08-19T09:38:33;26.10;87.50
59651;DHT22;45954;49.768;8.636;2022-08-19T09:41:05;26.10;87.40
59651;DHT22;45954;49.768;8.636;2022-08-19T09:43:33;26.10;87.10
59651;DHT22;45954;49.768;8.636;2022-08-19T09:46:06;26.10;87.50
59651;DHT22;45954;49.768;8.636;2022-08-19T09:48:43;26.00;87.70
59651;DHT22;45954;49.768;8.636;2022-08-19T09:51:24;25.90;86.90
59651;DHT22;45954;49.768;8.636;2022-08-19T09:53:55;25.80;86.30
59651;DHT22;45954;49.768;8.636;2022-08-19T09:56:24;25.90;87.50
59651;DHT22;45954;49.768;8.636;2022-08-19T09:58:50;26.30;87.70
59651;DHT22;45954;49.768;8.636;2022-08-19T10:01:25;26.50;85.60
59651;DHT22;45954;49.768;8.636;2022-08-19T10:03:55;26.50;85.30
59651;DHT22;45954;49.768;8.636;2022-08-19T10:06:25;26.50;86.30
59651;DHT22;45954;49.768;8.636;2022-08-19T10:08:56;26.50;86.30
59651;DHT22;45954;49.768;8.636;2022-08-19T10:11:21;26.50;86.10
59651;DHT22;45954;49.768;8.636;2022-08-19T10:13:49;26.40;85.10
59651;DHT22;45954;49.768;8.636;2022-08-19T10:16:19;25.90;85.90
59651;DHT22;45954;49.768;8.636;2022-08-19T10:18:47;25.70;87.40
59651;DHT22;45954;49.768;8.636;2022-08-19T10:21:17;26.00;86.40
59651;DHT22;45954;49.768;8.636;2022-08-19T10:23:45;26.20;86.70
59651;DHT22;45954;49.768;8.636;2022-08-19T10:26:19;26.30;86.30
59651;DHT22;45954;49.768;8.636;2022-08-19T10:28:47;26.10;86.40
59651;DHT22;45954;49.768;8.636;2022-08-19T10:31:16;26.20;86.40
59651;DHT22;45954;49.768;8.636;2022-08-19T10:33:47;26.30;86.40
59651;DHT22;45954;49.768;8.636;2022-08-19T10:36:19;26.30;86.30
59651;DHT22;45954;49.768;8.636;2022-08-19T10:38:52;26.30;85.80
59651;DHT22;45954;49.768;8.636;2022-08-19T10:41:22;26.30;86.20
59651;DHT22;45954;49.768;8.636;2022-08-19T10:43:55;26.60;85.30
59651;DHT22;45954;49.768;8.636;2022-08-19T10:46:26;27.00;84.50
59651;DHT22;45954;49.768;8.636;2022-08-19T10:48:53;27.50;83.80
59651;DHT22;45954;49.768;8.636;2022-08-19T10:51:20;27.40;82.60
59651;DHT22;45954;49.768;8.636;2022-08-19T10:54:06;27.10;83.40
59651;DHT22;45954;49.768;8.636;2022-08-19T10:56:33;27.40;83.00
59651;DHT22;45954;49.768;8.636;2022-08-19T10:59:23;27.60;84.80
59651;DHT22;45954;49.768;8.636;2022-08-19T11:01:59;27.90;81.90
59651;DHT22;45954;49.768;8.636;2022-08-19T11:04:29;27.90;81.30
59651;DHT22;45954;49.768;8.636;2022-08-19T11:06:55;28.20;82.20
59651;DHT22;45954;49.768;8.636;2022-08-19T11:09:24;28.40;81.10
59651;DHT22;45954;49.768;8.636;2022-08-19T11:11:52;28.30;81.00
59651;DHT22;45954;49.768;8.636;2022-08-19T11:14:20;28.10;80.50
59651;DHT22;45954;49.768;8.636;2022-08-19T11:16:54;27.80;80.90
59651;DHT22;45954;49.768;8.636;2022-08-19T11:19:22;27.70;80.50
59651;DHT22;45954;49.768;8.636;2022-08-19T11:21:51;27.80;80.70
59651;DHT22;45954;49.768;8.636;2022-08-19T11:24:21;28.10;79.60
59651;DHT22;45954;49.768;8.636;2022-08-19T11:26:51;27.70;78.90
59651;DHT22;45954;49.768;8.636;2022-08-19T11:29:21;27.80;79.10
59651;DHT22;45954;49.768;8.636;2022-08-19T11:31:48;28.20;77.80
59651;DHT22;45954;49.768;8.636;2022-08-19T11:34:19;28.30;77.80
59651;DHT22;45954;49.768;8.636;2022-08-19T11:36:48;28.30;76.70
59651;DHT22;45954;49.768;8.636;2022-08-19T11:39:17;28.20;77.40
59651;DHT22;45954;49.768;8.636;2022-08-19T11:41:44;28.70;77.10
59651;DHT22;45954;49.768;8.636;2022-08-19T11:44:11;29.00;76.00
59651;DHT22;45954;49.768;8.636;2022-08-19T11:46:41;29.10;75.10
59651;DHT22;45954;49.768;8.636;2022-08-19T11:49:11;29.30;74.20
59651;DHT22;45954;49.768;8.636;2022-08-19T11:51:39;29.70;75.70
59651;DHT22;45954;49.768;8.636;2022-08-19T11:54:07;29.80;74.30
59651;DHT22;45954;49.768;8.636;2022-08-19T11:56:33;29.50;73.30
59651;DHT22;45954;49.768;8.636;2022-08-19T11:59:01;29.40;73.10
59651;DHT22;45954;49.768;8.636;2022-08-19T12:01:27;29.30;72.00
59651;DHT22;45954;49.768;8.636;2022-08-19T12:03:56;29.30;73.20
59651;DHT22;45954;49.768;8.636;2022-08-19T12:06:26;29.80;71.50
59651;DHT22;45954;49.768;8.636;2022-08-19T12:08:59;29.70;70.80
59651;DHT22;45954;49.768;8.636;2022-08-19T12:11:27;30.10;70.80
59651;DHT22;45954;49.768;8.636;2022-08-19T12:13:56;30.00;69.70
59651;DHT22;45954;49.768;8.636;2022-08-19T12:16:33;29.80;69.40
59651;DHT22;45954;49.768;8.636;2022-08-19T12:19:00;29.70;69.80
59651;DHT22;45954;49.768;8.636;2022-08-19T12:21:31;29.50;69.80
59651;DHT22;45954;49.768;8.636;2022-08-19T12:24:02;29.90;68.80
59651;DHT22;45954;49.768;8.636;2022-08-19T12:26:29;30.10;68.80
59651;DHT22;45954;49.768;8.636;2022-08-19T12:28:57;29.20;69.90
59651;DHT22;45954;49.768;8.636;2022-08-19T12:31:26;29.70;69.50
59651;DHT22;45954;49.768;8.636;2022-08-19T12:33:53;29.90;69.70
59651;DHT22;45954;49.768;8.636;2022-08-19T12:36:19;30.00;68.90
59651;DHT22;45954;49.768;8.636;2022-08-19T12:38:47;30.30;68.70
59651;DHT22;45954;49.768;8.636;2022-08-19T12:41:16;30.40;67.90
59651;DHT22;45954;49.768;8.636;2022-08-19T12:43:44;30.90;67.20
59651;DHT22;45954;49.768;8.636;2022-08-19T12:46:11;30.90;65.90
59651;DHT22;45954;49.768;8.636;2022-08-19T12:48:38;30.80;66.60
59651;DHT22;45954;49.768;8.636;2022-08-19T12:51:14;30.50;66.30
59651;DHT22;45954;49.768;8.636;2022-08-19T12:53:42;30.00;66.90
59651;DHT22;45954;49.768;8.636;2022-08-19T12:56:10;30.70;67.70
59651;DHT22;45954;49.768;8.636;2022-08-19T12:58:37;30.00;65.80
59651;DHT22;45954;49.768;8.636;2022-08-19T13:01:12;30.40;66.00
59651;DHT22;45954;49.768;8.636;2022-08-19T13:03:40;30.90;65.40
59651;DHT22;45954;49.768;8.636;2022-08-19T13:06:06;31.60;65.50
59651;DHT22;45954;49.768;8.636;2022-08-19T13:08:34;31.00;64.80
59651;DHT22;45954;49.768;8.636;2022-08-19T13:11:18;31.20;64.60
59651;DHT22;45954;49.768;8.636;2022-08-19T13:13:48;30.70;64.70
59651;DHT22;45954;49.768;8.636;2022-08-19T13:16:16;30.60;64.50
59651;DHT22;45954;49.768;8.636;2022-08-19T13:18:44;30.10;65.00
59651;DHT22;45954;49.768;8.636;2022-08-19T13:21:18;30.50;64.70
59651;DHT22;45954;49.768;8.636;2022-08-19T13:23:46;31.10;63.10
59651;DHT22;45954;49.768;8.636;2022-08-19T13:26:12;31.60;62.70
59651;DHT22;45954;49.768;8.636;2022-08-19T13:28:40;32.00;62.10
59651;DHT22;45954;49.768;8.636;2022-08-19T13:31:28;32.00;61.80
59651;DHT22;45954;49.768;8.636;2022-08-19T13:34:15;32.00;59.30
59651;DHT22;45954;49.768;8.636;2022-08-19T13:36:43;31.70;60.70
59651;DHT22;45954;49.768;8.636;2022-08-19T13:39:09;32.30;60.10
59651;DHT22;45954;49.768;8.636;2022-08-19T13:41:37;32.70;58.80
59651;DHT22;45954;49.768;8.636;2022-08-19T13:44:06;32.80;60.40
59651;DHT22;45954;49.768;8.636;2022-08-19T13:46:32;33.10;60.10
59651;DHT22;45954;49.768;8.636;2022-08-19T13:48:58;32.90;58.70
59651;DHT22;45954;49.768;8.636;2022-08-19T13:51:24;33.20;59.30
59651;DHT22;45954;49.768;8.636;2022-08-19T13:53:50;33.50;60.40
59651;DHT22;45954;49.768;8.636;2022-08-19T13:56:20;33.80;57.70
59651;DHT22;45954;49.768;8.636;2022-08-19T13:58:46;33.70;57.40
59651;DHT22;45954;49.768;8.636;2022-08-19T14:01:12;33.20;57.80
59651;DHT22;45954;49.768;8.636;2022-08-19T14:03:38;33.10;59.10
59651;DHT22;45954;49.768;8.636;2022-08-19T14:06:04;33.40;57.70
59651;DHT22;45954;49.768;8.636;2022-08-19T14:08:30;32.90;57.00
59651;DHT22;45954;49.768;8.636;2022-08-19T14:10:58;32.50;57.90
59651;DHT22;45954;49.768;8.636;2022-08-19T14:13:24;32.40;57.50
59651;DHT22;45954;49.768;8.636;2022-08-19T14:15:51;32.70;57.20
59651;DHT22;45954;49.768;8.636;2022-08-19T14:18:18;32.10;56.40
59651;DHT22;45954;49.768;8.636;2022-08-19T14:20:44;32.50;56.00
59651;DHT22;45954;49.768;8.636;2022-08-19T14:23:11;32.60;54.90
59651;DHT22;45954;49.768;8.636;2022-08-19T14:25:38;32.00;56.00
59651;DHT22;45954;49.768;8.636;2022-08-19T14:28:04;31.80;56.30
59651;DHT22;45954;49.768;8.636;2022-08-19T14:30:33;31.90;56.60
59651;DHT22;45954;49.768;8.636;2022-08-19T14:33:01;31.60;56.60
59651;DHT22;45954;49.768;8.636;2022-08-19T14:35:29;31.50;56.50
59651;DHT22;45954;49.768;8.636;2022-08-19T14:37:59;32.10;56.30
59651;DHT22;45954;49.768;8.636;2022-08-19T14:40:27;31.60;56.50
59651;DHT22;45954;49.768;8.636;2022-08-19T14:42:57;31.50;57.10
59651;DHT22;45954;49.768;8.636;2022-08-19T14:45:32;32.40;56.50
59651;DHT22;45954;49.768;8.636;2022-08-19T14:47:59;32.80;55.40
59651;DHT22;45954;49.768;8.636;2022-08-19T14:50:26;32.80;54.40
59651;DHT22;45954;49.768;8.636;2022-08-19T14:53:02;32.80;55.00
59651;DHT22;45954;49.768;8.636;2022-08-19T14:55:31;33.00;53.90
59651;DHT22;45954;49.768;8.636;2022-08-19T14:57:58;33.30;53.20
59651;DHT22;45954;49.768;8.636;2022-08-19T15:00:25;32.60;54.80
59651;DHT22;45954;49.768;8.636;2022-08-19T15:02:51;32.70;55.60
59651;DHT22;45954;49.768;8.636;2022-08-19T15:05:20;33.10;55.80
59651;DHT22;45954;49.768;8.636;2022-08-19T15:07:46;33.10;54.90
59651;DHT22;45954;49.768;8.636;2022-08-19T15:10:14;32.50;55.70
59651;DHT22;45954;49.768;8.636;2022-08-19T15:12:41;32.10;55.80
59651;DHT22;45954;49.768;8.636;2022-08-19T15:15:13;32.50;55.50
59651;DHT22;45954;49.768;8.636;2022-08-19T15:17:44;32.80;54.50
59651;DHT22;45954;49.768;8.636;2022-08-19T15:20:12;32.90;54.00
59651;DHT22;45954;49.768;8.636;2022-08-19T15:22:44;32.50;54.90
59651;DHT22;45954;49.768;8.636;2022-08-19T15:25:16;32.10;54.60
59651;DHT22;45954;49.768;8.636;2022-08-19T15:27:44;32.40;54.80
59651;DHT22;45954;49.768;8.636;2022-08-19T15:30:11;32.20;54.20
59651;DHT22;45954;49.768;8.636;2022-08-19T15:32:38;32.40;54.50
59651;DHT22;45954;49.768;8.636;2022-08-19T15:35:06;32.30;53.90
59651;DHT22;45954;49.768;8.636;2022-08-19T15:37:32;32.00;53.40
59651;DHT22;45954;49.768;8.636;2022-08-19T15:39:58;31.50;54.20
59651;DHT22;45954;49.768;8.636;2022-08-19T15:42:24;31.50;54.90
59651;DHT22;45954;49.768;8.636;2022-08-19T15:44:52;32.00;55.20
59651;DHT22;45954;49.768;8.636;2022-08-19T15:47:17;31.90;54.50
59651;DHT22;45954;49.768;8.636;2022-08-19T15:49:45;32.00;54.70
59651;DHT22;45954;49.768;8.636;2022-08-19T15:52:11;32.00;54.20
59651;DHT22;45954;49.768;8.636;2022-08-19T15:54:36;32.10;53.50
59651;DHT22;45954;49.768;8.636;2022-08-19T15:57:02;31.80;54.00
59651;DHT22;45954;49.768;8.636;2022-08-19T15:59:47;31.60;53.90
59651;DHT22;45954;49.768;8.636;2022-08-19T16:02:32;31.20;54.90
59651;DHT22;45954;49.768;8.636;2022-08-19T16:05:21;31.40;54.30
59651;DHT22;45954;49.768;8.636;2022-08-19T16:08:08;31.50;53.50